Falkenburg Branch, FL (33689)

5:02 PM EST on January 27, 2015 (GMT -0500)
The University of Tampa | Change Station
CLOSE
Current Station
Personal Weather Station
Location: Tampa, FL
Elevation: 30 ft
Nearby Weather Stations
Active Advisory: Coastal Hazard Statement

Elev 30 ft 27.95 °N, 82.46 °W | Updated 9 seconds ago

Clear
Clear
65.2 °F
Feels Like 65.2 °F
N
11.0
Wind Variable Wind from North
Gusts 14.0 mph

Today
High -- | Low -- °F
--% Chance of Precip.
Yesterday
High -- | Low -- °F
Precip. -- in
7:19 AM 6:06 PM
First Quarter, 58% visible
Pressure 29.98 in
Visibility 10.0 miles
Clouds Clear
Dew Point 53 °F
Humidity 64%
Rainfall 0.00 in
Snow Depth Not available.
UV 1 out of 12
Pollen 8.90 out of 12
Air Quality Not available.
Flu Activity Not available.
METAR KTPF 272155Z AUTO 28008KT 245V305 10SM CLR 20/11 A2998 RMK AO2

More Conditions Fewer Conditions

Pressure 29.98 in
Visibility 10.0 miles
Clouds Clear
Dew Point 53 °F
Humidity 64%
Rainfall 0.00 in
Snow Depth Not available.
UV 1 out of 12
Pollen 8.90 out of 12
Air Quality Not available.
Flu Activity Not available.
METAR KTPF 272155Z AUTO 28008KT 245V305 10SM CLR 20/11 A2998 RMK AO2

More Conditions Fewer Conditions

10-Day Weather Forecast

Almanac

Astronomy

Jan. 27, 2015 Rise Set
Actual Time
Civil Twilight
Nautical Twilight
Astronomical Twilight
Moon
Length of Visible Light
Length of Day
Tomorrow will be .
, % of the Moon is Illuminated

Today's Extremes

State Highs State Lows

Community

WunderPhotos

Upload Photos

1,790,921 photos uploaded!

WunderBlogs® & News

Nearby

Air Quality

  Air Quality AQ Index Pollutant
Not available.

Snow Depth

Station Depth Elevation

Earthquake Activity

City Distance Mag. Time & Date
Minimum magnitude displayed is 2.5.

Coastal Water Temperatures

Place Temperature

Nearby Weather Stations